createdAt,value
2023-03-06T00:01:54.230Z,3.30
2023-03-06T00:03:28.048Z,3.12
2023-03-06T00:05:02.434Z,2.32
2023-03-06T00:06:26.613Z,1.49
2023-03-06T00:08:06.419Z,0.84
2023-03-06T00:09:59.980Z,0.13
2023-03-06T00:11:44.985Z,-0.21
2023-03-06T00:13:33.165Z,0.75
2023-03-06T00:14:59.861Z,2.09
2023-03-06T00:16:40.926Z,3.16
2023-03-06T00:18:17.022Z,3.13
2023-03-06T00:19:54.496Z,2.44
2023-03-06T00:21:28.160Z,1.51
2023-03-06T00:22:50.265Z,0.90
2023-03-06T00:24:24.680Z,0.38
2023-03-06T00:25:58.192Z,-0.18
2023-03-06T00:27:33.873Z,-0.40
2023-03-06T00:29:19.644Z,0.55
2023-03-06T00:30:45.977Z,1.91
2023-03-06T00:32:07.723Z,2.95
2023-03-06T00:33:43.316Z,3.24
2023-03-06T00:35:07.866Z,2.67
2023-03-06T00:36:43.752Z,1.84
2023-03-06T00:38:28.518Z,1.06
2023-03-06T00:40:00.156Z,0.42
2023-03-06T00:41:35.749Z,-0.10
2023-03-06T00:43:11.545Z,-0.43
2023-03-06T00:45:06.251Z,0.36
2023-03-06T00:46:47.313Z,1.86
2023-03-06T00:48:21.120Z,3.07
2023-03-06T00:49:49.941Z,3.15
2023-03-06T00:51:21.657Z,2.49
2023-03-06T00:52:45.349Z,1.69
2023-03-06T00:54:32.756Z,0.94
2023-03-06T00:56:02.248Z,0.28
2023-03-06T00:57:35.581Z,-0.16
2023-03-06T00:59:07.263Z,-0.44
2023-03-06T01:00:36.239Z,0.35
2023-03-06T01:02:05.212Z,1.56
2023-03-06T01:03:49.774Z,2.74
2023-03-06T01:05:11.339Z,3.25
2023-03-06T01:06:44.721Z,2.72
2023-03-06T01:08:06.424Z,2.00
2023-03-06T01:09:30.151Z,1.31
2023-03-06T01:11:03.996Z,0.70
2023-03-06T01:12:49.375Z,0.07
2023-03-06T01:14:24.799Z,-0.27
2023-03-06T01:16:11.368Z,0.57
2023-03-06T01:17:44.932Z,1.84
2023-03-06T01:19:08.870Z,2.98
2023-03-06T01:20:45.090Z,3.33
2023-03-06T01:22:30.267Z,2.68
2023-03-06T01:24:06.504Z,1.83
2023-03-06T01:25:39.805Z,1.01
2023-03-06T01:27:21.343Z,0.41
2023-03-06T01:29:07.836Z,-0.12
2023-03-06T01:30:32.115Z,-0.01
2023-03-06T01:31:58.760Z,0.92
2023-03-06T01:33:23.009Z,2.09
2023-03-06T01:35:03.749Z,3.15
2023-03-06T01:36:45.146Z,3.35
2023-03-06T01:38:25.649Z,2.54
2023-03-06T01:39:59.019Z,1.74
2023-03-06T01:41:30.858Z,0.99
2023-03-06T01:43:17.380Z,0.34
2023-03-06T01:45:03.011Z,-0.11
2023-03-06T01:46:50.461Z,0.59
2023-03-06T01:48:43.499Z,2.02
2023-03-06T01:50:09.913Z,3.25
2023-03-06T01:51:50.604Z,3.45
2023-03-06T01:53:31.794Z,2.66
2023-03-06T01:55:05.267Z,1.87
2023-03-06T01:56:38.581Z,1.16
2023-03-06T01:58:14.728Z,0.54
2023-03-06T02:00:00.106Z,-0.01
2023-03-06T02:01:53.829Z,0.29
2023-03-06T02:03:38.823Z,1.73
2023-03-06T02:05:10.303Z,3.01
2023-03-06T02:06:46.393Z,3.39
2023-03-06T02:08:17.018Z,2.78
2023-03-06T02:10:08.280Z,1.98
2023-03-06T02:11:52.122Z,1.20
2023-03-06T02:13:27.645Z,0.55
2023-03-06T02:15:01.066Z,-0.00
2023-03-06T02:16:22.996Z,-0.35
2023-03-06T02:17:56.805Z,-0.54
2023-03-06T02:19:29.394Z,0.17
2023-03-06T02:21:01.036Z,1.51
2023-03-06T02:22:25.333Z,2.58
2023-03-06T02:24:00.129Z,2.80
2023-03-06T02:25:40.846Z,2.15
2023-03-06T02:27:14.224Z,1.38
2023-03-06T02:28:47.923Z,0.67
2023-03-06T02:30:33.476Z,0.02
2023-03-06T02:32:04.776Z,-0.46
2023-03-06T02:33:59.226Z,-0.31
2023-03-06T02:35:31.033Z,0.94
2023-03-06T02:37:11.849Z,2.30
2023-03-06T02:38:34.223Z,3.07
2023-03-06T02:40:08.048Z,2.83
2023-03-06T02:41:31.735Z,2.07
2023-03-06T02:42:56.589Z,1.39
2023-03-06T02:44:46.210Z,0.71
2023-03-06T02:46:32.186Z,0.02
2023-03-06T02:48:13.375Z,-0.47
2023-03-06T02:49:53.570Z,-0.71
2023-03-06T02:51:38.781Z,0.24
2023-03-06T02:53:03.121Z,1.58
2023-03-06T02:54:50.777Z,2.69
2023-03-06T02:56:35.850Z,2.65
2023-03-06T02:58:20.493Z,1.83
2023-03-06T03:00:05.358Z,0.99
2023-03-06T03:01:50.592Z,0.30
2023-03-06T03:03:44.380Z,-0.27
2023-03-06T03:05:29.494Z,-0.72
2023-03-06T03:07:17.751Z,0.03
2023-03-06T03:09:02.241Z,1.33
2023-03-06T03:10:47.416Z,2.76
2023-03-06T03:12:41.463Z,2.82
2023-03-06T03:14:34.472Z,1.93
2023-03-06T03:16:00.509Z,1.09
2023-03-06T03:17:54.258Z,0.44
2023-03-06T03:19:39.759Z,-0.17
2023-03-06T03:21:29.686Z,-0.42
2023-03-06T03:23:14.811Z,0.66
2023-03-06T03:24:51.726Z,1.98
2023-03-06T03:26:25.237Z,3.16
2023-03-06T03:28:15.734Z,3.05
2023-03-06T03:29:42.657Z,2.27
2023-03-06T03:31:18.714Z,1.53
2023-03-06T03:32:52.968Z,0.84
2023-03-06T03:34:48.216Z,0.20
2023-03-06T03:36:34.982Z,-0.09
2023-03-06T03:38:20.384Z,0.94
2023-03-06T03:40:01.181Z,2.27
2023-03-06T03:41:37.451Z,3.29
2023-03-06T03:43:12.269Z,3.12
2023-03-06T03:44:45.708Z,2.41
2023-03-06T03:46:23.610Z,1.54
2023-03-06T03:47:56.849Z,0.69
2023-03-06T03:49:30.150Z,0.08
2023-03-06T03:51:06.166Z,-0.22
2023-03-06T03:52:44.038Z,0.61
2023-03-06T03:54:19.817Z,1.90
2023-03-06T03:56:05.695Z,3.08
2023-03-06T03:58:00.196Z,3.31
2023-03-06T03:59:41.120Z,2.42
2023-03-06T04:01:41.552Z,1.46
2023-03-06T04:03:34.771Z,0.62
2023-03-06T04:05:10.469Z,-0.03
2023-03-06T04:07:05.314Z,0.14
2023-03-06T04:08:53.262Z,1.53
2023-03-06T04:10:46.895Z,2.91
2023-03-06T04:12:24.420Z,3.53
2023-03-06T04:14:10.404Z,2.87
2023-03-06T04:16:05.248Z,1.90
2023-03-06T04:17:41.907Z,0.96
2023-03-06T04:19:38.607Z,0.29
2023-03-06T04:21:32.429Z,0.03
2023-03-06T04:23:06.409Z,1.21
2023-03-06T04:24:52.372Z,2.45
2023-03-06T04:26:45.750Z,3.52
2023-03-06T04:28:42.251Z,3.20
2023-03-06T04:30:27.723Z,2.14
2023-03-06T04:32:15.504Z,1.19
2023-03-06T04:34:09.064Z,0.41
2023-03-06T04:35:52.026Z,-0.03
2023-03-06T04:37:42.148Z,0.90
2023-03-06T04:39:16.066Z,2.31
2023-03-06T04:41:02.984Z,3.39
2023-03-06T04:42:51.553Z,3.49
2023-03-06T04:44:39.055Z,2.59
2023-03-06T04:46:27.201Z,1.61
2023-03-06T04:48:13.030Z,0.76
2023-03-06T04:49:54.420Z,0.14
2023-03-06T04:51:43.242Z,0.61
2023-03-06T04:53:28.550Z,1.96
2023-03-06T04:55:15.812Z,3.24
2023-03-06T04:56:51.741Z,3.79
2023-03-06T04:58:37.151Z,3.12
2023-03-06T05:00:11.834Z,2.12
2023-03-06T05:02:07.437Z,1.33
2023-03-06T05:03:53.883Z,0.54
2023-03-06T05:05:28.808Z,0.61
2023-03-06T05:07:14.647Z,1.67
2023-03-06T05:09:02.204Z,3.01
2023-03-06T05:10:55.339Z,4.06
2023-03-06T05:12:40.356Z,3.89
2023-03-06T05:14:32.495Z,2.93
2023-03-06T05:16:06.187Z,1.91
2023-03-06T05:17:51.400Z,1.19
2023-03-06T05:19:40.031Z,0.85
2023-03-06T05:21:25.847Z,1.88
2023-03-06T05:22:59.686Z,3.20
2023-03-06T05:24:50.015Z,4.24
2023-03-06T05:26:36.294Z,4.49
2023-03-06T05:28:18.528Z,3.71
2023-03-06T05:30:04.050Z,2.61
2023-03-06T05:31:58.293Z,1.75
2023-03-06T05:33:43.933Z,1.31
2023-03-06T05:35:37.289Z,2.23
2023-03-06T05:37:22.937Z,3.66
2023-03-06T05:38:57.132Z,4.64
2023-03-06T05:40:43.746Z,4.65
2023-03-06T05:42:38.160Z,3.73
2023-03-06T05:44:12.917Z,2.79
2023-03-06T05:45:59.203Z,1.97
2023-03-06T05:47:33.646Z,1.60
2023-03-06T05:49:20.881Z,2.45
2023-03-06T05:51:07.663Z,3.82
2023-03-06T05:52:41.902Z,4.94
2023-03-06T05:54:30.232Z,5.21
2023-03-06T05:56:15.576Z,4.37
2023-03-06T05:58:04.898Z,3.42
2023-03-06T05:59:46.536Z,2.66
2023-03-06T06:01:32.422Z,1.98
2023-03-06T06:03:07.474Z,2.26
2023-03-06T06:04:40.611Z,3.56
2023-03-06T06:06:15.496Z,4.63
2023-03-06T06:08:04.735Z,5.40
2023-03-06T06:09:50.833Z,4.75
2023-03-06T06:11:15.436Z,3.89
2023-03-06T06:12:49.243Z,3.13
2023-03-06T06:14:34.494Z,2.53
2023-03-06T06:16:20.328Z,2.30
2023-03-06T06:17:56.897Z,3.21
2023-03-06T06:19:30.821Z,4.58
2023-03-06T06:21:17.172Z,5.51
2023-03-06T06:23:05.848Z,5.22
2023-03-06T06:24:56.545Z,4.25
2023-03-06T06:26:20.253Z,3.40
2023-03-06T06:28:13.962Z,2.73
2023-03-06T06:30:05.620Z,2.46
2023-03-06T06:31:47.849Z,3.44
2023-03-06T06:33:42.171Z,4.93
2023-03-06T06:35:04.355Z,5.87
2023-03-06T06:36:40.084Z,5.65
2023-03-06T06:38:25.299Z,4.75
2023-03-06T06:40:11.603Z,3.83
2023-03-06T06:42:09.642Z,3.06
2023-03-06T06:43:46.712Z,2.53
2023-03-06T06:45:20.409Z,3.11
2023-03-06T06:47:21.855Z,4.31
2023-03-06T06:49:03.685Z,5.81
2023-03-06T06:50:45.808Z,6.04
2023-03-06T06:52:19.496Z,5.28
2023-03-06T06:54:04.745Z,4.28
2023-03-06T06:55:40.343Z,3.42
2023-03-06T06:57:09.875Z,2.85
2023-03-06T06:58:31.840Z,2.75
2023-03-06T07:00:16.909Z,3.65
2023-03-06T07:01:59.001Z,4.92
2023-03-06T07:03:32.879Z,6.06
2023-03-06T07:05:20.820Z,6.13
2023-03-06T07:07:06.280Z,5.30
2023-03-06T07:08:56.699Z,4.41
2023-03-06T07:10:46.965Z,3.61
2023-03-06T07:12:20.102Z,3.07
2023-03-06T07:13:41.895Z,3.32
2023-03-06T07:15:35.108Z,4.41
2023-03-06T07:17:11.228Z,5.91
2023-03-06T07:18:45.353Z,6.77
2023-03-06T07:20:32.205Z,6.50
2023-03-06T07:22:17.774Z,5.54
2023-03-06T07:23:54.280Z,4.65
2023-03-06T07:25:40.791Z,3.98
2023-03-06T07:27:14.292Z,3.59
2023-03-06T07:29:09.233Z,4.32
2023-03-06T07:30:57.033Z,5.85
2023-03-06T07:32:38.964Z,6.91
2023-03-06T07:34:13.585Z,6.82
2023-03-06T07:35:51.383Z,6.16
2023-03-06T07:37:13.374Z,5.38
2023-03-06T07:38:59.832Z,4.69
2023-03-06T07:40:45.619Z,4.05
2023-03-06T07:42:31.838Z,3.67
2023-03-06T07:43:55.292Z,4.34
2023-03-06T07:45:49.253Z,5.52
2023-03-06T07:47:23.766Z,6.86
2023-03-06T07:49:00.154Z,7.05
2023-03-06T07:50:46.259Z,6.37
2023-03-06T07:52:20.129Z,5.60
2023-03-06T07:54:11.195Z,4.88
2023-03-06T07:55:57.001Z,4.18
2023-03-06T07:57:42.354Z,3.93
2023-03-06T07:59:31.380Z,4.99
2023-03-06T08:01:17.765Z,6.34
2023-03-06T08:03:04.818Z,7.30
2023-03-06T08:04:28.913Z,6.98
2023-03-06T08:06:03.481Z,6.16
2023-03-06T08:07:48.957Z,5.35
2023-03-06T08:09:35.413Z,4.58
2023-03-06T08:11:20.996Z,4.09
2023-03-06T08:13:07.913Z,4.73
2023-03-06T08:14:42.434Z,6.15
2023-03-06T08:16:17.396Z,7.04
2023-03-06T08:18:03.706Z,7.05
2023-03-06T08:19:38.518Z,6.34
2023-03-06T08:21:12.700Z,5.56
2023-03-06T08:22:58.745Z,4.81
2023-03-06T08:24:44.087Z,4.19
2023-03-06T08:26:20.062Z,3.87
2023-03-06T08:27:49.997Z,4.56
2023-03-06T08:29:44.193Z,5.85
2023-03-06T08:31:29.565Z,7.12
2023-03-06T08:33:03.048Z,7.17
2023-03-06T08:34:48.191Z,6.34
2023-03-06T08:36:38.682Z,5.42
2023-03-06T08:38:23.810Z,4.65
2023-03-06T08:40:09.749Z,4.07
2023-03-06T08:41:44.686Z,4.01
2023-03-06T08:43:39.186Z,5.14
2023-03-06T08:45:33.404Z,6.67
2023-03-06T08:47:19.956Z,7.52
2023-03-06T08:49:01.038Z,6.95
2023-03-06T08:50:34.847Z,6.19
2023-03-06T08:52:22.878Z,5.35
2023-03-06T08:54:16.511Z,4.64
2023-03-06T08:56:01.829Z,4.06
2023-03-06T08:57:37.891Z,3.71
2023-03-06T08:59:12.791Z,4.24
2023-03-06T09:00:48.962Z,5.62
2023-03-06T09:02:34.816Z,6.84
2023-03-06T09:04:08.865Z,7.17
2023-03-06T09:05:57.475Z,6.53
2023-03-06T09:07:45.012Z,5.66
2023-03-06T09:09:18.572Z,4.94
2023-03-06T09:10:40.367Z,4.51
2023-03-06T09:12:13.905Z,4.08
2023-03-06T09:13:59.379Z,3.74
2023-03-06T09:15:24.257Z,4.23
2023-03-06T09:17:09.879Z,5.45
2023-03-06T09:18:31.926Z,6.68
2023-03-06T09:20:18.360Z,7.34
2023-03-06T09:22:03.599Z,6.82
2023-03-06T09:23:39.432Z,5.93
2023-03-06T09:25:26.499Z,5.16
2023-03-06T09:27:07.658Z,4.46
2023-03-06T09:28:42.069Z,3.96
2023-03-06T09:30:28.299Z,3.81
2023-03-06T09:32:02.086Z,4.92
2023-03-06T09:33:38.104Z,6.08
2023-03-06T09:35:23.289Z,7.28
2023-03-06T09:37:05.116Z,7.34
2023-03-06T09:38:50.926Z,6.61
2023-03-06T09:40:31.807Z,5.85
2023-03-06T09:44:04.964Z,4.68
2023-03-06T09:46:00.309Z,4.23
2023-03-06T09:47:46.733Z,4.42
2023-03-06T09:49:37.688Z,5.75
2023-03-06T09:51:19.031Z,7.15
2023-03-06T09:53:04.641Z,7.66
2023-03-06T09:54:49.747Z,7.07
2023-03-06T09:56:41.158Z,6.25
2023-03-06T09:58:15.912Z,5.61
2023-03-06T09:59:49.735Z,5.02
2023-03-06T10:01:36.053Z,4.58
2023-03-06T10:03:17.768Z,4.55
2023-03-06T10:06:51.131Z,7.14
2023-03-06T10:08:31.465Z,7.84
2023-03-06T10:10:22.286Z,7.40
2023-03-06T10:11:56.169Z,6.52
2023-03-06T10:13:29.694Z,5.83
2023-03-06T10:15:11.898Z,5.34
2023-03-06T10:17:05.816Z,4.79
2023-03-06T10:18:46.131Z,4.50
2023-03-06T10:20:19.864Z,5.47
2023-03-06T10:21:56.509Z,6.70
2023-03-06T10:23:39.161Z,7.68
2023-03-06T10:25:12.339Z,7.89
2023-03-06T10:26:36.526Z,7.31
2023-03-06T10:28:11.805Z,6.52
2023-03-06T10:30:04.563Z,5.79
2023-03-06T10:31:49.780Z,5.07
2023-03-06T10:33:29.927Z,4.87
2023-03-06T10:35:15.577Z,5.90
2023-03-06T10:36:49.255Z,7.24
2023-03-06T10:38:18.422Z,8.19
2023-03-06T10:40:00.248Z,8.30
2023-03-06T10:41:22.138Z,7.65
2023-03-06T10:43:11.384Z,6.87
2023-03-06T10:44:58.014Z,5.92
2023-03-06T10:46:44.295Z,5.16
2023-03-06T10:48:29.358Z,5.08
2023-03-06T10:50:03.258Z,6.30
2023-03-06T10:51:48.942Z,7.44
2023-03-06T10:53:23.055Z,8.49
2023-03-06T10:54:57.078Z,8.50
2023-03-06T10:56:30.737Z,7.84
2023-03-06T10:57:57.640Z,6.98
2023-03-06T10:59:31.371Z,6.31
2023-03-06T11:01:02.826Z,5.68
2023-03-06T11:02:40.192Z,5.51
2023-03-06T11:04:10.134Z,6.38
2023-03-06T11:05:39.650Z,7.59
2023-03-06T11:07:02.021Z,8.54
2023-03-06T11:08:31.134Z,8.99
2023-03-06T11:10:16.309Z,8.48
2023-03-06T11:12:11.175Z,7.57
2023-03-06T11:13:37.768Z,6.72
2023-03-06T11:15:32.215Z,6.09
2023-03-06T11:17:08.136Z,5.72
2023-03-06T11:18:43.792Z,6.52
2023-03-06T11:20:20.614Z,7.59
2023-03-06T11:22:10.091Z,8.75
2023-03-06T11:23:55.375Z,8.83
2023-03-06T11:25:41.156Z,8.11
2023-03-06T11:27:30.684Z,7.13
2023-03-06T11:29:19.130Z,6.31
2023-03-06T11:31:14.239Z,5.76
2023-03-06T11:33:00.033Z,6.51
2023-03-06T11:34:51.160Z,7.80
2023-03-06T11:36:15.285Z,9.04
2023-03-06T11:38:02.855Z,9.30
2023-03-06T11:39:38.727Z,8.65
2023-03-06T11:41:03.270Z,7.84
2023-03-06T11:42:39.129Z,7.10
2023-03-06T11:44:29.742Z,6.48
2023-03-06T11:46:18.318Z,5.86
2023-03-06T11:48:05.138Z,6.02
2023-03-06T11:49:59.576Z,7.22
2023-03-06T11:51:25.842Z,8.47
2023-03-06T11:53:11.239Z,9.05
2023-03-06T11:55:06.210Z,8.50
2023-03-06T11:56:50.520Z,7.58
2023-03-06T11:58:19.794Z,6.75
2023-03-06T11:59:57.868Z,6.07
2023-03-06T12:01:30.787Z,5.50
2023-03-06T12:03:17.793Z,5.83
2023-03-06T12:04:54.270Z,7.07
2023-03-06T12:06:37.157Z,8.07
2023-03-06T12:08:22.179Z,8.96
2023-03-06T12:10:07.711Z,8.46
2023-03-06T12:11:43.206Z,7.50
2023-03-06T12:13:27.717Z,6.73
2023-03-06T12:15:04.048Z,5.99
2023-03-06T12:16:39.508Z,5.53
2023-03-06T12:18:24.807Z,5.87
2023-03-06T12:20:10.403Z,7.13
2023-03-06T12:21:46.572Z,8.40
2023-03-06T12:23:41.135Z,9.10
2023-03-06T12:25:26.345Z,8.59
2023-03-06T12:27:09.398Z,7.82
2023-03-06T12:28:55.259Z,6.99
2023-03-06T12:30:35.954Z,6.42
2023-03-06T12:32:30.342Z,6.19
2023-03-06T12:34:16.634Z,7.32
2023-03-06T12:35:51.589Z,8.67
2023-03-06T12:37:25.080Z,9.37
2023-03-06T12:39:10.127Z,9.16
2023-03-06T12:40:45.969Z,8.29
2023-03-06T12:42:23.392Z,7.59
2023-03-06T12:44:09.295Z,6.95
2023-03-06T12:45:55.201Z,6.42
2023-03-06T12:47:28.752Z,6.22
2023-03-06T12:49:10.307Z,7.10
2023-03-06T12:50:44.858Z,8.25
2023-03-06T12:52:21.541Z,9.27
2023-03-06T12:54:10.205Z,9.04
2023-03-06T12:55:42.240Z,8.20
2023-03-06T12:57:17.851Z,7.46
2023-03-06T12:59:04.145Z,6.87
2023-03-06T13:00:26.141Z,6.30
2023-03-06T13:02:18.196Z,6.16
2023-03-06T13:03:59.063Z,7.32
2023-03-06T13:05:32.865Z,8.66
2023-03-06T13:07:13.829Z,9.51
2023-03-06T13:09:07.272Z,9.26
2023-03-06T13:11:00.515Z,8.39
2023-03-06T13:12:36.060Z,7.54
2023-03-06T13:14:08.254Z,6.99
2023-03-06T13:15:49.744Z,6.39
2023-03-06T13:17:35.238Z,6.25
2023-03-06T13:19:20.107Z,7.27
2023-03-06T13:21:05.267Z,8.63
2023-03-06T13:22:38.595Z,9.62
2023-03-06T13:24:22.142Z,9.46
2023-03-06T13:26:07.343Z,8.66
2023-03-06T13:27:33.677Z,7.89
2023-03-06T13:29:07.635Z,7.22
2023-03-06T13:30:40.906Z,6.65
2023-03-06T13:32:10.434Z,6.26
2023-03-06T13:33:47.232Z,6.68
2023-03-06T13:35:23.830Z,7.87
2023-03-06T13:37:00.077Z,9.04
2023-03-06T13:38:33.828Z,9.56
2023-03-06T13:40:07.424Z,9.06
2023-03-06T13:41:52.221Z,8.34
2023-03-06T13:43:27.849Z,7.47
2023-03-06T13:45:13.368Z,6.74
2023-03-06T13:46:56.878Z,6.40
2023-03-06T13:48:51.929Z,7.27
2023-03-06T13:50:37.017Z,8.64
2023-03-06T13:52:01.906Z,9.55
2023-03-06T13:53:48.006Z,9.47
2023-03-06T13:55:21.183Z,8.77
2023-03-06T13:56:54.996Z,7.90
2023-03-06T13:58:19.368Z,7.31
2023-03-06T13:59:43.216Z,6.83
2023-03-06T14:01:08.030Z,6.63
2023-03-06T14:02:42.503Z,7.42
2023-03-06T14:04:23.164Z,8.60
2023-03-06T14:06:08.799Z,9.67
2023-03-06T14:07:42.729Z,9.84
2023-03-06T14:09:27.423Z,9.12
2023-03-06T14:11:02.437Z,8.26
2023-03-06T14:12:24.532Z,7.67
2023-03-06T14:13:48.792Z,7.16
2023-03-06T14:15:18.437Z,6.84
2023-03-06T14:17:00.403Z,7.37
2023-03-06T14:18:31.789Z,8.69
2023-03-06T14:19:57.525Z,9.67
2023-03-06T14:21:19.228Z,10.02
2023-03-06T14:22:41.186Z,9.61
2023-03-06T14:24:15.023Z,8.91
2023-03-06T14:25:47.916Z,8.01
2023-03-06T14:27:09.845Z,7.38
2023-03-06T14:28:31.830Z,6.87
2023-03-06T14:30:01.063Z,6.75
2023-03-06T14:31:24.200Z,7.50
2023-03-06T14:32:54.126Z,8.53
2023-03-06T14:34:22.746Z,9.53
2023-03-06T14:36:08.813Z,9.95
2023-03-06T14:37:54.985Z,9.36
2023-03-06T14:39:16.612Z,8.57
2023-03-06T14:40:52.482Z,7.87
2023-03-06T14:42:28.900Z,7.31
2023-03-06T14:44:09.611Z,6.78
2023-03-06T14:45:38.775Z,7.09
2023-03-06T14:47:12.247Z,8.26
2023-03-06T14:48:45.734Z,9.41
2023-03-06T14:50:26.687Z,10.04
2023-03-06T14:52:10.160Z,9.70
2023-03-06T14:53:48.466Z,8.80
2023-03-06T14:55:28.394Z,8.12
2023-03-06T14:56:55.182Z,7.53
2023-03-06T14:58:49.343Z,7.07
2023-03-06T15:00:23.861Z,6.95
2023-03-06T15:02:09.402Z,8.00
2023-03-06T15:03:43.108Z,9.38
2023-03-06T15:05:05.340Z,10.13
2023-03-06T15:06:27.072Z,10.05
2023-03-06T15:07:49.512Z,9.49
2023-03-06T15:09:14.231Z,8.82
2023-03-06T15:10:43.552Z,8.21
2023-03-06T15:12:07.947Z,7.64
2023-03-06T15:13:29.684Z,7.19
2023-03-06T15:14:51.562Z,6.89
2023-03-06T15:16:12.988Z,7.29
2023-03-06T15:17:39.505Z,8.27
2023-03-06T15:19:04.472Z,9.32
2023-03-06T15:20:26.488Z,10.07
2023-03-06T15:21:48.863Z,10.03
2023-03-06T15:23:10.906Z,9.44
2023-03-06T15:24:33.083Z,8.73
2023-03-06T15:25:57.746Z,8.05
2023-03-06T15:27:22.090Z,7.47
2023-03-06T15:28:44.198Z,6.97
2023-03-06T15:30:06.140Z,6.58
2023-03-06T15:31:28.226Z,6.92
2023-03-06T15:32:50.640Z,7.81
2023-03-06T15:34:12.491Z,8.79
2023-03-06T15:35:37.849Z,9.58
2023-03-06T15:37:00.342Z,9.62
2023-03-06T15:38:22.103Z,8.97
2023-03-06T15:39:46.853Z,8.16
2023-03-06T15:41:16.000Z,7.38
2023-03-06T15:42:42.633Z,6.66
2023-03-06T15:44:06.785Z,6.13
2023-03-06T15:45:29.962Z,6.36
2023-03-06T15:46:59.241Z,7.21
2023-03-06T15:48:28.509Z,8.29
2023-03-06T15:50:03.268Z,9.04
2023-03-06T15:51:24.876Z,9.19
2023-03-06T15:52:58.559Z,8.58
2023-03-06T15:54:19.914Z,7.68
2023-03-06T15:55:44.988Z,6.92
2023-03-06T15:57:06.827Z,6.27
2023-03-06T15:58:28.624Z,5.93
2023-03-06T15:59:58.028Z,6.50
2023-03-06T16:01:43.023Z,7.43
2023-03-06T16:03:29.306Z,8.62
2023-03-06T16:05:05.752Z,9.23
2023-03-06T16:06:37.563Z,8.76
2023-03-06T16:08:14.794Z,7.71
2023-03-06T16:09:43.982Z,6.82
2023-03-06T16:11:16.941Z,6.15
2023-03-06T16:12:50.333Z,5.74
2023-03-06T16:14:24.188Z,6.32
2023-03-06T16:15:46.592Z,7.39
2023-03-06T16:17:08.541Z,8.26
2023-03-06T16:18:59.098Z,8.98
2023-03-06T16:20:33.579Z,8.64
2023-03-06T16:22:09.263Z,7.81
2023-03-06T16:23:38.739Z,6.87
2023-03-06T16:25:00.840Z,6.14
2023-03-06T16:26:22.490Z,5.63
2023-03-06T16:27:44.683Z,5.91
2023-03-06T16:29:25.663Z,6.91
2023-03-06T16:31:01.710Z,8.02
2023-03-06T16:32:37.819Z,8.73
2023-03-06T16:34:13.437Z,8.58
2023-03-06T16:35:55.239Z,7.79
2023-03-06T16:37:21.482Z,6.78
2023-03-06T16:38:43.915Z,6.06
2023-03-06T16:40:18.819Z,5.51
2023-03-06T16:41:40.979Z,5.81
2023-03-06T16:43:10.718Z,6.66
2023-03-06T16:44:40.102Z,7.64
2023-03-06T16:46:12.267Z,8.48
2023-03-06T16:47:46.444Z,8.68
2023-03-06T16:49:08.144Z,7.95
2023-03-06T16:50:34.685Z,7.13
2023-03-06T16:52:29.181Z,6.27
2023-03-06T16:54:14.548Z,5.52
2023-03-06T16:56:02.155Z,6.03
2023-03-06T16:57:37.648Z,7.14
2023-03-06T16:58:59.685Z,8.14
2023-03-06T17:00:33.344Z,8.74
2023-03-06T17:02:00.002Z,8.44
2023-03-06T17:03:21.670Z,7.69
2023-03-06T17:04:57.633Z,6.91
2023-03-06T17:06:31.097Z,6.06
2023-03-06T17:07:56.157Z,5.49
2023-03-06T17:09:18.122Z,5.69
2023-03-06T17:10:44.922Z,6.54
2023-03-06T17:12:06.769Z,7.54
2023-03-06T17:13:28.453Z,8.43
2023-03-06T17:14:53.129Z,8.77
2023-03-06T17:16:16.216Z,8.29
2023-03-06T17:17:51.911Z,7.41
2023-03-06T17:19:15.188Z,6.70
2023-03-06T17:20:45.048Z,6.02
2023-03-06T17:22:09.187Z,5.53
2023-03-06T17:23:30.593Z,5.73
2023-03-06T17:25:05.128Z,6.73
2023-03-06T17:26:34.088Z,7.71
2023-03-06T17:27:56.631Z,8.59
2023-03-06T17:29:33.665Z,8.67
2023-03-06T17:31:18.702Z,7.89
2023-03-06T17:33:04.266Z,6.93
2023-03-06T17:34:40.146Z,6.13
2023-03-06T17:36:14.675Z,5.59
2023-03-06T17:38:00.726Z,6.04
2023-03-06T17:39:24.554Z,7.15
2023-03-06T17:40:49.036Z,8.09
2023-03-06T17:42:10.600Z,8.75
2023-03-06T17:43:37.237Z,8.57
2023-03-06T17:45:11.057Z,7.86
2023-03-06T17:46:35.483Z,7.02
2023-03-06T17:48:05.147Z,6.29
2023-03-06T17:49:47.744Z,5.69
2023-03-06T17:51:10.019Z,5.72
2023-03-06T17:52:43.241Z,6.66
2023-03-06T17:54:19.297Z,7.65
2023-03-06T17:55:48.665Z,8.60
2023-03-06T17:57:33.844Z,8.44
2023-03-06T17:59:05.677Z,7.60
2023-03-06T18:00:27.520Z,6.80
2023-03-06T18:01:51.918Z,6.13
2023-03-06T18:03:23.398Z,5.57
2023-03-06T18:04:53.319Z,5.71
2023-03-06T18:06:15.721Z,6.62
2023-03-06T18:07:40.147Z,7.59
2023-03-06T18:09:01.901Z,8.43
2023-03-06T18:10:35.137Z,8.92
2023-03-06T18:11:57.310Z,8.51
2023-03-06T18:13:38.988Z,7.78
2023-03-06T18:15:35.995Z,6.88
2023-03-06T18:16:56.290Z,6.05
2023-03-06T18:18:20.343Z,5.73
2023-03-06T18:19:45.116Z,6.26
2023-03-06T18:21:06.885Z,7.21
2023-03-06T18:22:30.941Z,8.12
2023-03-06T18:23:55.538Z,8.87
2023-03-06T18:25:19.852Z,8.81
2023-03-06T18:26:56.847Z,8.12
2023-03-06T18:28:18.589Z,7.30
2023-03-06T18:29:40.872Z,6.66
2023-03-06T18:31:08.319Z,6.10
2023-03-06T18:32:43.125Z,5.77
2023-03-06T18:34:08.315Z,6.35
2023-03-06T18:35:45.208Z,7.45
2023-03-06T18:37:21.183Z,8.60
2023-03-06T18:38:55.928Z,9.09
2023-03-06T18:40:17.654Z,8.64
2023-03-06T18:41:39.594Z,7.92
2023-03-06T18:43:04.487Z,7.22
2023-03-06T18:44:28.671Z,6.62
2023-03-06T18:46:02.945Z,6.06
2023-03-06T18:47:25.005Z,6.13
2023-03-06T18:48:50.275Z,6.92
2023-03-06T18:50:17.658Z,7.97
2023-03-06T18:51:39.912Z,8.88
2023-03-06T18:53:02.299Z,9.14
2023-03-06T18:54:36.894Z,8.67
2023-03-06T18:55:59.109Z,7.84
2023-03-06T18:57:23.395Z,7.15
2023-03-06T18:58:57.686Z,6.49
2023-03-06T19:00:20.000Z,6.00
2023-03-06T19:01:42.293Z,5.95
2023-03-06T19:03:07.302Z,6.69
2023-03-06T19:04:33.707Z,7.72
2023-03-06T19:05:56.253Z,8.66
2023-03-06T19:07:20.344Z,9.13
2023-03-06T19:08:42.346Z,8.76
2023-03-06T19:10:16.177Z,8.02
2023-03-06T19:11:49.606Z,7.10
2023-03-06T19:13:13.189Z,6.48
2023-03-06T19:14:36.468Z,5.96
2023-03-06T19:16:06.700Z,6.13
2023-03-06T19:17:28.560Z,6.98
2023-03-06T19:18:55.244Z,7.97
2023-03-06T19:20:19.333Z,8.81
2023-03-06T19:21:41.234Z,9.08
2023-03-06T19:23:14.871Z,8.46
2023-03-06T19:24:36.453Z,7.69
2023-03-06T19:26:07.747Z,6.89
2023-03-06T19:27:30.119Z,6.25
2023-03-06T19:28:54.679Z,5.75
2023-03-06T19:30:28.147Z,6.04
2023-03-06T19:31:52.410Z,7.06
2023-03-06T19:33:14.637Z,8.02
2023-03-06T19:34:36.527Z,8.82
2023-03-06T19:36:05.693Z,8.98
2023-03-06T19:37:27.296Z,8.35
2023-03-06T19:38:56.286Z,7.51
2023-03-06T19:40:25.735Z,6.73
2023-03-06T19:41:47.916Z,6.09
2023-03-06T19:43:12.882Z,5.70
2023-03-06T19:44:36.841Z,6.19
2023-03-06T19:46:01.019Z,7.11
2023-03-06T19:47:37.547Z,8.12
2023-03-06T19:49:09.934Z,8.87
2023-03-06T19:50:54.114Z,8.69
2023-03-06T19:52:16.901Z,7.77
2023-03-06T19:53:43.559Z,6.98
2023-03-06T19:55:13.082Z,6.28
2023-03-06T19:56:36.969Z,5.80
2023-03-06T19:58:12.626Z,6.23
2023-03-06T19:59:37.072Z,7.27
2023-03-06T20:00:59.263Z,8.20
2023-03-06T20:02:26.428Z,8.86
2023-03-06T20:03:58.763Z,8.62
2023-03-06T20:05:23.095Z,7.89
2023-03-06T20:06:46.651Z,7.13
2023-03-06T20:08:08.251Z,6.46
2023-03-06T20:09:32.279Z,5.91
2023-03-06T20:10:54.601Z,5.87
2023-03-06T20:12:18.494Z,6.59
2023-03-06T20:13:46.903Z,7.56
2023-03-06T20:15:09.281Z,8.46
2023-03-06T20:16:31.227Z,8.81
2023-03-06T20:18:01.223Z,8.37
2023-03-06T20:19:22.935Z,7.56
2023-03-06T20:20:52.057Z,6.78
2023-03-06T20:22:25.424Z,6.16
2023-03-06T20:23:59.324Z,5.54
2023-03-06T20:25:32.517Z,5.82
2023-03-06T20:27:09.194Z,6.71
2023-03-06T20:28:31.041Z,7.77
2023-03-06T20:29:52.942Z,8.50
2023-03-06T20:31:26.181Z,8.50
2023-03-06T20:33:09.106Z,7.75
2023-03-06T20:34:39.018Z,6.72
2023-03-06T20:36:00.756Z,6.02
2023-03-06T20:37:22.439Z,5.45
2023-03-06T20:38:44.671Z,5.38
2023-03-06T20:40:16.484Z,6.21
2023-03-06T20:41:38.493Z,7.17
2023-03-06T20:43:00.196Z,8.03
2023-03-06T20:44:22.983Z,8.55
2023-03-06T20:45:47.156Z,8.20
2023-03-06T20:47:09.693Z,7.44
2023-03-06T20:48:35.944Z,6.61
2023-03-06T20:49:58.066Z,5.86
2023-03-06T20:51:19.626Z,5.24
2023-03-06T20:52:48.973Z,4.70
2023-03-06T20:55:33.097Z,5.78
2023-03-06T20:56:59.776Z,6.71
2023-03-06T20:58:23.762Z,7.49
2023-03-06T20:59:45.995Z,7.75
2023-03-06T21:01:08.013Z,7.21
2023-03-06T21:02:29.516Z,6.42
2023-03-06T21:03:51.660Z,5.65
2023-03-06T21:05:15.527Z,4.97
2023-03-06T21:06:37.388Z,4.50
2023-03-06T21:07:59.006Z,4.83
2023-03-06T21:09:20.609Z,5.69
2023-03-06T21:10:45.046Z,6.61
2023-03-06T21:12:18.294Z,7.44
2023-03-06T21:13:40.528Z,7.76
2023-03-06T21:15:02.406Z,7.23
2023-03-06T21:16:26.738Z,6.47
2023-03-06T21:18:02.685Z,5.61
2023-03-06T21:19:24.232Z,4.97
2023-03-06T21:20:46.115Z,4.48
2023-03-06T21:22:14.981Z,4.62